sensor_id;sensor_type;location;lat;lon;timestamp;temperature;humidity
4183;DHT22;2105;52.300;9.182;2023-12-07T00:01:21;3.20;99.90
4183;DHT22;2105;52.300;9.182;2023-12-07T00:03:47;3.30;99.90
4183;DHT22;2105;52.300;9.182;2023-12-07T00:06:14;3.20;99.90
4183;DHT22;2105;52.300;9.182;2023-12-07T00:08:40;3.30;99.90
4183;DHT22;2105;52.300;9.182;2023-12-07T00:11:08;3.30;99.90
4183;DHT22;2105;52.300;9.182;2023-12-07T00:13:35;3.30;99.90
4183;DHT22;2105;52.300;9.182;2023-12-07T00:16:02;3.20;99.90
4183;DHT22;2105;52.300;9.182;2023-12-07T00:18:28;3.30;99.90
4183;DHT22;2105;52.300;9.182;2023-12-07T00:20:55;3.30;99.90
4183;DHT22;2105;52.300;9.182;2023-12-07T00:23:21;3.30;99.90
4183;DHT22;2105;52.300;9.182;2023-12-07T00:25:49;3.30;99.90
4183;DHT22;2105;52.300;9.182;2023-12-07T00:28:17;3.30;99.90
4183;DHT22;2105;52.300;9.182;2023-12-07T00:30:43;3.30;99.90
4183;DHT22;2105;52.300;9.182;2023-12-07T00:33:10;3.30;99.90
4183;DHT22;2105;52.300;9.182;2023-12-07T00:35:36;3.30;99.90
4183;DHT22;2105;52.300;9.182;2023-12-07T00:38:03;3.30;99.90
4183;DHT22;2105;52.300;9.182;2023-12-07T00:40:31;3.30;99.90
4183;DHT22;2105;52.300;9.182;2023-12-07T00:43:01;3.30;99.90
4183;DHT22;2105;52.300;9.182;2023-12-07T00:45:29;3.30;99.90
4183;DHT22;2105;52.300;9.182;2023-12-07T00:47:56;3.30;99.90
4183;DHT22;2105;52.300;9.182;2023-12-07T00:50:22;3.30;99.90
4183;DHT22;2105;52.300;9.182;2023-12-07T00:52:49;3.30;99.90
4183;DHT22;2105;52.300;9.182;2023-12-07T00:55:16;3.30;99.90
4183;DHT22;2105;52.300;9.182;2023-12-07T00:57:42;3.30;99.90
4183;DHT22;2105;52.300;9.182;2023-12-07T01:00:09;3.40;99.90
4183;DHT22;2105;52.300;9.182;2023-12-07T01:02:38;3.40;99.90
4183;DHT22;2105;52.300;9.182;2023-12-07T01:05:05;3.40;99.90
4183;DHT22;2105;52.300;9.182;2023-12-07T01:07:32;3.30;99.90
4183;DHT22;2105;52.300;9.182;2023-12-07T01:09:58;3.40;99.90
4183;DHT22;2105;52.300;9.182;2023-12-07T01:12:25;3.30;99.90
4183;DHT22;2105;52.300;9.182;2023-12-07T01:14:52;3.40;99.90
4183;DHT22;2105;52.300;9.182;2023-12-07T01:17:18;3.30;99.90
4183;DHT22;2105;52.300;9.182;2023-12-07T01:19:46;3.40;99.90
4183;DHT22;2105;52.300;9.182;2023-12-07T01:22:13;3.40;99.90
4183;DHT22;2105;52.300;9.182;2023-12-07T01:24:40;3.40;99.90
4183;DHT22;2105;52.300;9.182;2023-12-07T01:27:06;3.40;99.90
4183;DHT22;2105;52.300;9.182;2023-12-07T01:29:33;3.40;99.90
4183;DHT22;2105;52.300;9.182;2023-12-07T01:31:59;3.40;99.90
4183;DHT22;2105;52.300;9.182;2023-12-07T01:34:26;3.40;99.90
4183;DHT22;2105;52.300;9.182;2023-12-07T01:36:54;3.40;99.90
4183;DHT22;2105;52.300;9.182;2023-12-07T01:39:21;3.40;99.90
4183;DHT22;2105;52.300;9.182;2023-12-07T01:41:47;3.50;99.90
4183;DHT22;2105;52.300;9.182;2023-12-07T01:44:14;3.40;99.90
4183;DHT22;2105;52.300;9.182;2023-12-07T01:46:41;3.40;99.90
4183;DHT22;2105;52.300;9.182;2023-12-07T01:49:08;3.40;99.90
4183;DHT22;2105;52.300;9.182;2023-12-07T01:51:35;3.40;99.90
4183;DHT22;2105;52.300;9.182;2023-12-07T01:54:03;3.40;99.90
4183;DHT22;2105;52.300;9.182;2023-12-07T01:56:30;3.40;99.90
4183;DHT22;2105;52.300;9.182;2023-12-07T01:58:57;3.40;99.90
4183;DHT22;2105;52.300;9.182;2023-12-07T02:01:24;3.40;99.90
4183;DHT22;2105;52.300;9.182;2023-12-07T02:03:51;3.40;99.90
4183;DHT22;2105;52.300;9.182;2023-12-07T02:06:17;3.40;99.90
4183;DHT22;2105;52.300;9.182;2023-12-07T02:08:45;3.40;99.90
4183;DHT22;2105;52.300;9.182;2023-12-07T02:11:13;3.40;99.90
4183;DHT22;2105;52.300;9.182;2023-12-07T02:13:41;3.50;99.90
4183;DHT22;2105;52.300;9.182;2023-12-07T02:16:15;3.40;99.90
4183;DHT22;2105;52.300;9.182;2023-12-07T02:18:48;3.40;99.90
4183;DHT22;2105;52.300;9.182;2023-12-07T02:21:21;3.40;99.90
4183;DHT22;2105;52.300;9.182;2023-12-07T02:23:52;3.40;99.90
4183;DHT22;2105;52.300;9.182;2023-12-07T02:26:22;3.50;99.90
4183;DHT22;2105;52.300;9.182;2023-12-07T02:28:51;3.50;99.90
4183;DHT22;2105;52.300;9.182;2023-12-07T02:31:18;3.50;99.90
4183;DHT22;2105;52.300;9.182;2023-12-07T02:33:45;3.50;99.90
4183;DHT22;2105;52.300;9.182;2023-12-07T02:36:14;3.50;99.90
4183;DHT22;2105;52.300;9.182;2023-12-07T02:38:44;3.40;99.90
4183;DHT22;2105;52.300;9.182;2023-12-07T02:41:11;3.40;99.90
4183;DHT22;2105;52.300;9.182;2023-12-07T02:43:38;3.40;99.90
4183;DHT22;2105;52.300;9.182;2023-12-07T02:46:06;3.40;99.90
4183;DHT22;2105;52.300;9.182;2023-12-07T02:48:33;3.40;99.90
4183;DHT22;2105;52.300;9.182;2023-12-07T02:50:59;3.50;99.90
4183;DHT22;2105;52.300;9.182;2023-12-07T02:53:26;3.50;99.90
4183;DHT22;2105;52.300;9.182;2023-12-07T02:55:53;3.50;99.90
4183;DHT22;2105;52.300;9.182;2023-12-07T02:58:19;3.50;99.90
4183;DHT22;2105;52.300;9.182;2023-12-07T03:00:46;3.40;99.90
4183;DHT22;2105;52.300;9.182;2023-12-07T03:03:14;3.40;99.90
4183;DHT22;2105;52.300;9.182;2023-12-07T03:05:41;3.40;99.90
4183;DHT22;2105;52.300;9.182;2023-12-07T03:08:08;3.50;99.90
4183;DHT22;2105;52.300;9.182;2023-12-07T03:10:35;3.50;99.90
4183;DHT22;2105;52.300;9.182;2023-12-07T03:13:02;3.50;99.90
4183;DHT22;2105;52.300;9.182;2023-12-07T03:15:28;3.50;99.90
4183;DHT22;2105;52.300;9.182;2023-12-07T03:17:55;3.50;99.90
4183;DHT22;2105;52.300;9.182;2023-12-07T03:20:23;3.50;99.90
4183;DHT22;2105;52.300;9.182;2023-12-07T03:22:50;3.60;99.90
4183;DHT22;2105;52.300;9.182;2023-12-07T03:25:16;3.60;99.90
4183;DHT22;2105;52.300;9.182;2023-12-07T03:27:43;3.50;99.90
4183;DHT22;2105;52.300;9.182;2023-12-07T03:30:11;3.50;99.90
4183;DHT22;2105;52.300;9.182;2023-12-07T03:32:37;3.50;99.90
4183;DHT22;2105;52.300;9.182;2023-12-07T03:35:05;3.50;99.90
4183;DHT22;2105;52.300;9.182;2023-12-07T03:37:33;3.50;99.90
4183;DHT22;2105;52.300;9.182;2023-12-07T03:40:00;3.50;99.90
4183;DHT22;2105;52.300;9.182;2023-12-07T03:42:27;3.50;99.90
4183;DHT22;2105;52.300;9.182;2023-12-07T03:44:53;3.50;99.90
4183;DHT22;2105;52.300;9.182;2023-12-07T03:47:20;3.50;99.90
4183;DHT22;2105;52.300;9.182;2023-12-07T03:49:46;3.50;99.90
4183;DHT22;2105;52.300;9.182;2023-12-07T03:52:13;3.50;99.90
4183;DHT22;2105;52.300;9.182;2023-12-07T03:54:41;3.40;99.90
4183;DHT22;2105;52.300;9.182;2023-12-07T03:57:08;3.40;99.90
4183;DHT22;2105;52.300;9.182;2023-12-07T03:59:36;3.40;99.90
4183;DHT22;2105;52.300;9.182;2023-12-07T04:02:03;3.40;99.90
4183;DHT22;2105;52.300;9.182;2023-12-07T04:04:29;3.40;99.90
4183;DHT22;2105;52.300;9.182;2023-12-07T04:06:56;3.40;99.90
4183;DHT22;2105;52.300;9.182;2023-12-07T04:09:23;3.40;99.90
4183;DHT22;2105;52.300;9.182;2023-12-07T04:11:51;3.40;99.90
4183;DHT22;2105;52.300;9.182;2023-12-07T04:14:17;3.40;99.90
4183;DHT22;2105;52.300;9.182;2023-12-07T04:16:44;3.40;99.90
4183;DHT22;2105;52.300;9.182;2023-12-07T04:19:11;3.40;99.90
4183;DHT22;2105;52.300;9.182;2023-12-07T04:21:38;3.40;99.90
4183;DHT22;2105;52.300;9.182;2023-12-07T04:24:05;3.40;99.90
4183;DHT22;2105;52.300;9.182;2023-12-07T04:26:31;3.40;99.90
4183;DHT22;2105;52.300;9.182;2023-12-07T04:28:59;3.40;99.90
4183;DHT22;2105;52.300;9.182;2023-12-07T04:31:26;3.40;99.90
4183;DHT22;2105;52.300;9.182;2023-12-07T04:33:52;3.40;99.90
4183;DHT22;2105;52.300;9.182;2023-12-07T04:36:19;3.40;99.90
4183;DHT22;2105;52.300;9.182;2023-12-07T04:38:46;3.40;99.90
4183;DHT22;2105;52.300;9.182;2023-12-07T04:41:12;3.40;99.90
4183;DHT22;2105;52.300;9.182;2023-12-07T04:43:39;3.40;99.90
4183;DHT22;2105;52.300;9.182;2023-12-07T04:46:07;3.40;99.90
4183;DHT22;2105;52.300;9.182;2023-12-07T04:48:34;3.40;99.90
4183;DHT22;2105;52.300;9.182;2023-12-07T04:51:00;3.50;99.90
4183;DHT22;2105;52.300;9.182;2023-12-07T04:53:27;3.40;99.90
4183;DHT22;2105;52.300;9.182;2023-12-07T04:55:54;3.40;99.90
4183;DHT22;2105;52.300;9.182;2023-12-07T04:58:20;3.40;99.90
4183;DHT22;2105;52.300;9.182;2023-12-07T05:00:47;3.40;99.90
4183;DHT22;2105;52.300;9.182;2023-12-07T05:03:15;3.50;99.90
4183;DHT22;2105;52.300;9.182;2023-12-07T05:05:42;3.50;99.90
4183;DHT22;2105;52.300;9.182;2023-12-07T05:08:08;3.50;99.90
4183;DHT22;2105;52.300;9.182;2023-12-07T05:10:35;3.50;99.90
4183;DHT22;2105;52.300;9.182;2023-12-07T05:13:02;3.50;99.90
4183;DHT22;2105;52.300;9.182;2023-12-07T05:15:28;3.50;99.90
4183;DHT22;2105;52.300;9.182;2023-12-07T05:17:55;3.50;99.90
4183;DHT22;2105;52.300;9.182;2023-12-07T05:20:23;3.50;99.90
4183;DHT22;2105;52.300;9.182;2023-12-07T05:22:52;3.50;99.90
4183;DHT22;2105;52.300;9.182;2023-12-07T05:25:18;3.50;99.90
4183;DHT22;2105;52.300;9.182;2023-12-07T05:27:45;3.50;99.90
4183;DHT22;2105;52.300;9.182;2023-12-07T05:30:12;3.50;99.90
4183;DHT22;2105;52.300;9.182;2023-12-07T05:32:39;3.50;99.90
4183;DHT22;2105;52.300;9.182;2023-12-07T05:35:06;3.50;99.90
4183;DHT22;2105;52.300;9.182;2023-12-07T05:37:34;3.50;99.90
4183;DHT22;2105;52.300;9.182;2023-12-07T05:40:01;3.50;99.90
4183;DHT22;2105;52.300;9.182;2023-12-07T05:42:28;3.50;99.90
4183;DHT22;2105;52.300;9.182;2023-12-07T05:44:55;3.50;99.90
4183;DHT22;2105;52.300;9.182;2023-12-07T05:47:21;3.50;99.90
4183;DHT22;2105;52.300;9.182;2023-12-07T05:49:48;3.50;99.90
4183;DHT22;2105;52.300;9.182;2023-12-07T05:52:15;3.50;99.90
4183;DHT22;2105;52.300;9.182;2023-12-07T05:54:43;3.50;99.90
4183;DHT22;2105;52.300;9.182;2023-12-07T05:57:12;3.50;99.90
4183;DHT22;2105;52.300;9.182;2023-12-07T05:59:39;3.50;99.90
4183;DHT22;2105;52.300;9.182;2023-12-07T06:02:07;3.50;99.90
4183;DHT22;2105;52.300;9.182;2023-12-07T06:04:33;3.60;99.90
4183;DHT22;2105;52.300;9.182;2023-12-07T06:07:00;3.50;99.90
4183;DHT22;2105;52.300;9.182;2023-12-07T06:09:27;3.50;99.90
4183;DHT22;2105;52.300;9.182;2023-12-07T06:11:55;3.40;99.90
4183;DHT22;2105;52.300;9.182;2023-12-07T06:14:22;3.50;99.90
4183;DHT22;2105;52.300;9.182;2023-12-07T06:16:49;3.40;99.90
4183;DHT22;2105;52.300;9.182;2023-12-07T06:19:16;3.50;99.90
4183;DHT22;2105;52.300;9.182;2023-12-07T06:21:43;3.50;99.90
4183;DHT22;2105;52.300;9.182;2023-12-07T06:24:10;3.50;99.90
4183;DHT22;2105;52.300;9.182;2023-12-07T06:26:36;3.50;99.90
4183;DHT22;2105;52.300;9.182;2023-12-07T06:29:04;3.50;99.90
4183;DHT22;2105;52.300;9.182;2023-12-07T06:31:33;3.60;99.90
4183;DHT22;2105;52.300;9.182;2023-12-07T06:33:59;3.60;99.90
4183;DHT22;2105;52.300;9.182;2023-12-07T06:36:26;3.60;99.90
4183;DHT22;2105;52.300;9.182;2023-12-07T06:38:53;3.60;99.90
4183;DHT22;2105;52.300;9.182;2023-12-07T06:41:20;3.60;99.90
4183;DHT22;2105;52.300;9.182;2023-12-07T06:43:47;3.60;99.90
4183;DHT22;2105;52.300;9.182;2023-12-07T06:46:15;3.60;99.90
4183;DHT22;2105;52.300;9.182;2023-12-07T06:48:42;3.60;99.90
4183;DHT22;2105;52.300;9.182;2023-12-07T06:51:08;3.60;99.90
4183;DHT22;2105;52.300;9.182;2023-12-07T06:53:35;3.60;99.90
4183;DHT22;2105;52.300;9.182;2023-12-07T06:56:02;3.60;99.90
4183;DHT22;2105;52.300;9.182;2023-12-07T06:58:29;3.60;99.90
4183;DHT22;2105;52.300;9.182;2023-12-07T07:00:55;3.60;99.90
4183;DHT22;2105;52.300;9.182;2023-12-07T07:03:24;3.60;99.90
4183;DHT22;2105;52.300;9.182;2023-12-07T07:05:50;3.60;99.90
4183;DHT22;2105;52.300;9.182;2023-12-07T07:08:17;3.60;99.90
4183;DHT22;2105;52.300;9.182;2023-12-07T07:10:44;3.60;99.90
4183;DHT22;2105;52.300;9.182;2023-12-07T07:13:12;3.60;99.90
4183;DHT22;2105;52.300;9.182;2023-12-07T07:15:42;3.60;99.90
4183;DHT22;2105;52.300;9.182;2023-12-07T07:18:09;3.60;99.90
4183;DHT22;2105;52.300;9.182;2023-12-07T07:20:37;3.60;99.90
4183;DHT22;2105;52.300;9.182;2023-12-07T07:23:03;3.50;99.90
4183;DHT22;2105;52.300;9.182;2023-12-07T07:25:30;3.60;99.90
4183;DHT22;2105;52.300;9.182;2023-12-07T07:27:57;3.60;99.90
4183;DHT22;2105;52.300;9.182;2023-12-07T07:30:23;3.60;99.90
4183;DHT22;2105;52.300;9.182;2023-12-07T07:32:50;3.50;99.90
4183;DHT22;2105;52.300;9.182;2023-12-07T07:35:17;3.50;99.90
4183;DHT22;2105;52.300;9.182;2023-12-07T07:37:45;3.60;99.90
4183;DHT22;2105;52.300;9.182;2023-12-07T07:40:12;3.50;99.90
4183;DHT22;2105;52.300;9.182;2023-12-07T07:42:39;3.50;99.90
4183;DHT22;2105;52.300;9.182;2023-12-07T07:45:07;3.50;99.90
4183;DHT22;2105;52.300;9.182;2023-12-07T07:47:34;3.60;99.90
4183;DHT22;2105;52.300;9.182;2023-12-07T07:50:01;3.50;99.90
4183;DHT22;2105;52.300;9.182;2023-12-07T07:52:31;3.50;99.90
4183;DHT22;2105;52.300;9.182;2023-12-07T07:54:59;3.50;99.90
4183;DHT22;2105;52.300;9.182;2023-12-07T07:57:26;3.60;99.90
4183;DHT22;2105;52.300;9.182;2023-12-07T07:59:52;3.60;99.90
4183;DHT22;2105;52.300;9.182;2023-12-07T08:02:20;3.60;99.90
4183;DHT22;2105;52.300;9.182;2023-12-07T08:04:47;3.60;99.90
4183;DHT22;2105;52.300;9.182;2023-12-07T08:07:14;3.60;99.90
4183;DHT22;2105;52.300;9.182;2023-12-07T08:09:41;3.60;99.90
4183;DHT22;2105;52.300;9.182;2023-12-07T08:12:09;3.60;99.90
4183;DHT22;2105;52.300;9.182;2023-12-07T08:14:36;3.60;99.90
4183;DHT22;2105;52.300;9.182;2023-12-07T08:17:03;3.60;99.90
4183;DHT22;2105;52.300;9.182;2023-12-07T08:19:29;3.60;99.90
4183;DHT22;2105;52.300;9.182;2023-12-07T08:21:56;3.70;99.90
4183;DHT22;2105;52.300;9.182;2023-12-07T08:24:23;3.70;99.90
4183;DHT22;2105;52.300;9.182;2023-12-07T08:26:50;3.70;99.90
4183;DHT22;2105;52.300;9.182;2023-12-07T08:29:18;3.70;99.90
4183;DHT22;2105;52.300;9.182;2023-12-07T08:31:45;3.70;99.90
4183;DHT22;2105;52.300;9.182;2023-12-07T08:34:12;3.70;99.90
4183;DHT22;2105;52.300;9.182;2023-12-07T08:36:39;3.60;99.90
4183;DHT22;2105;52.300;9.182;2023-12-07T08:39:06;3.60;99.90
4183;DHT22;2105;52.300;9.182;2023-12-07T08:41:35;3.60;99.90
4183;DHT22;2105;52.300;9.182;2023-12-07T08:44:02;3.60;99.90
4183;DHT22;2105;52.300;9.182;2023-12-07T08:46:30;3.60;99.90
4183;DHT22;2105;52.300;9.182;2023-12-07T08:48:56;3.60;99.90
4183;DHT22;2105;52.300;9.182;2023-12-07T08:51:23;3.50;99.90
4183;DHT22;2105;52.300;9.182;2023-12-07T08:53:50;3.50;99.90
4183;DHT22;2105;52.300;9.182;2023-12-07T08:56:17;3.50;99.90
4183;DHT22;2105;52.300;9.182;2023-12-07T08:58:43;3.50;99.90
4183;DHT22;2105;52.300;9.182;2023-12-07T09:01:10;3.50;99.90
4183;DHT22;2105;52.300;9.182;2023-12-07T09:03:38;3.50;99.90
4183;DHT22;2105;52.300;9.182;2023-12-07T09:06:07;3.60;99.90
4183;DHT22;2105;52.300;9.182;2023-12-07T09:08:34;3.60;99.90
4183;DHT22;2105;52.300;9.182;2023-12-07T09:11:01;3.70;99.90
4183;DHT22;2105;52.300;9.182;2023-12-07T09:13:29;3.80;99.90
4183;DHT22;2105;52.300;9.182;2023-12-07T09:15:55;3.80;99.90
4183;DHT22;2105;52.300;9.182;2023-12-07T09:18:23;3.80;99.90
4183;DHT22;2105;52.300;9.182;2023-12-07T09:20:51;3.80;99.90
4183;DHT22;2105;52.300;9.182;2023-12-07T09:23:18;3.90;99.90
4183;DHT22;2105;52.300;9.182;2023-12-07T09:25:45;3.90;99.90
4183;DHT22;2105;52.300;9.182;2023-12-07T09:28:12;3.90;99.90
4183;DHT22;2105;52.300;9.182;2023-12-07T09:30:39;4.00;99.90
4183;DHT22;2105;52.300;9.182;2023-12-07T09:33:05;3.90;99.90
4183;DHT22;2105;52.300;9.182;2023-12-07T09:35:32;3.90;99.90
4183;DHT22;2105;52.300;9.182;2023-12-07T09:38:01;4.00;99.90
4183;DHT22;2105;52.300;9.182;2023-12-07T09:40:27;4.00;99.90
4183;DHT22;2105;52.300;9.182;2023-12-07T09:42:54;4.00;99.90
4183;DHT22;2105;52.300;9.182;2023-12-07T09:45:21;3.90;99.90
4183;DHT22;2105;52.300;9.182;2023-12-07T09:47:49;3.90;99.90
4183;DHT22;2105;52.300;9.182;2023-12-07T09:50:16;3.80;99.90
4183;DHT22;2105;52.300;9.182;2023-12-07T09:52:44;3.90;99.90
4183;DHT22;2105;52.300;9.182;2023-12-07T09:55:12;3.90;99.90
4183;DHT22;2105;52.300;9.182;2023-12-07T09:57:39;3.90;99.90
4183;DHT22;2105;52.300;9.182;2023-12-07T10:00:07;3.90;99.90
4183;DHT22;2105;52.300;9.182;2023-12-07T10:02:36;4.00;99.90
4183;DHT22;2105;52.300;9.182;2023-12-07T10:05:04;4.10;99.90
4183;DHT22;2105;52.300;9.182;2023-12-07T10:07:33;4.10;66.70
4183;DHT22;2105;52.300;9.182;2023-12-07T10:10:02;4.20;26.00
4183;DHT22;2105;52.300;9.182;2023-12-07T10:12:30;4.20;1.00
4183;DHT22;2105;52.300;9.182;2023-12-07T10:14:59;4.20;1.00
4183;DHT22;2105;52.300;9.182;2023-12-07T10:20:45;4.30;1.00
4183;DHT22;2105;52.300;9.182;2023-12-07T10:23:13;4.30;1.00
4183;DHT22;2105;52.300;9.182;2023-12-07T10:25:43;4.40;1.00
4183;DHT22;2105;52.300;9.182;2023-12-07T10:28:11;4.40;1.00
4183;DHT22;2105;52.300;9.182;2023-12-07T10:30:38;4.40;1.00
4183;DHT22;2105;52.300;9.182;2023-12-07T10:33:07;4.50;1.00
4183;DHT22;2105;52.300;9.182;2023-12-07T10:35:38;4.50;1.00
4183;DHT22;2105;52.300;9.182;2023-12-07T10:38:04;4.50;1.00
4183;DHT22;2105;52.300;9.182;2023-12-07T10:40:31;4.60;1.00
4183;DHT22;2105;52.300;9.182;2023-12-07T10:42:58;4.60;1.00
4183;DHT22;2105;52.300;9.182;2023-12-07T10:45:31;4.60;1.00
4183;DHT22;2105;52.300;9.182;2023-12-07T10:48:02;4.50;1.00
4183;DHT22;2105;52.300;9.182;2023-12-07T10:50:35;4.40;1.00
4183;DHT22;2105;52.300;9.182;2023-12-07T10:53:09;4.40;1.00
4183;DHT22;2105;52.300;9.182;2023-12-07T10:55:53;4.40;50.10
4183;DHT22;2105;52.300;9.182;2023-12-07T10:58:21;4.50;97.50
4183;DHT22;2105;52.300;9.182;2023-12-07T11:00:52;4.50;92.00
4183;DHT22;2105;52.300;9.182;2023-12-07T11:03:19;4.50;96.60
4183;DHT22;2105;52.300;9.182;2023-12-07T11:05:47;4.60;99.60
4183;DHT22;2105;52.300;9.182;2023-12-07T11:08:20;4.60;99.90
4183;DHT22;2105;52.300;9.182;2023-12-07T11:10:52;4.60;99.90
4183;DHT22;2105;52.300;9.182;2023-12-07T11:13:24;4.70;99.90
4183;DHT22;2105;52.300;9.182;2023-12-07T11:15:54;4.80;98.80
4183;DHT22;2105;52.300;9.182;2023-12-07T11:18:21;4.80;47.60
4183;DHT22;2105;52.300;9.182;2023-12-07T11:20:48;4.80;1.00
4183;DHT22;2105;52.300;9.182;2023-12-07T11:23:16;4.90;1.00
4183;DHT22;2105;52.300;9.182;2023-12-07T11:25:44;4.90;1.00
4183;DHT22;2105;52.300;9.182;2023-12-07T11:28:12;4.90;1.00
4183;DHT22;2105;52.300;9.182;2023-12-07T11:30:42;4.90;99.90
4183;DHT22;2105;52.300;9.182;2023-12-07T11:33:10;4.90;1.00
4183;DHT22;2105;52.300;9.182;2023-12-07T11:36:05;4.80;1.00
4183;DHT22;2105;52.300;9.182;2023-12-07T11:38:33;4.80;77.90
4183;DHT22;2105;52.300;9.182;2023-12-07T11:41:00;4.80;99.90
4183;DHT22;2105;52.300;9.182;2023-12-07T11:43:37;4.80;99.90
4183;DHT22;2105;52.300;9.182;2023-12-07T11:46:09;4.80;99.90
4183;DHT22;2105;52.300;9.182;2023-12-07T11:48:37;4.80;99.90
4183;DHT22;2105;52.300;9.182;2023-12-07T11:51:05;4.80;99.90
4183;DHT22;2105;52.300;9.182;2023-12-07T11:53:34;4.90;99.90
4183;DHT22;2105;52.300;9.182;2023-12-07T11:56:02;5.00;99.90
4183;DHT22;2105;52.300;9.182;2023-12-07T11:58:29;5.10;1.00
4183;DHT22;2105;52.300;9.182;2023-12-07T12:00:56;5.10;1.00
4183;DHT22;2105;52.300;9.182;2023-12-07T12:03:24;5.10;79.80
4183;DHT22;2105;52.300;9.182;2023-12-07T12:05:52;5.20;99.90
4183;DHT22;2105;52.300;9.182;2023-12-07T12:08:20;5.20;1.00
4183;DHT22;2105;52.300;9.182;2023-12-07T12:10:48;5.00;1.00
4183;DHT22;2105;52.300;9.182;2023-12-07T12:13:17;4.90;99.90
4183;DHT22;2105;52.300;9.182;2023-12-07T12:15:45;4.90;1.00
4183;DHT22;2105;52.300;9.182;2023-12-07T12:18:12;4.90;99.90
4183;DHT22;2105;52.300;9.182;2023-12-07T12:20:39;4.90;99.90
4183;DHT22;2105;52.300;9.182;2023-12-07T12:23:07;4.90;99.90
4183;DHT22;2105;52.300;9.182;2023-12-07T12:25:34;4.90;99.90
4183;DHT22;2105;52.300;9.182;2023-12-07T12:28:02;5.00;99.90
4183;DHT22;2105;52.300;9.182;2023-12-07T12:30:30;5.10;99.90
4183;DHT22;2105;52.300;9.182;2023-12-07T12:32:57;5.20;99.90
4183;DHT22;2105;52.300;9.182;2023-12-07T12:35:25;5.30;99.90
4183;DHT22;2105;52.300;9.182;2023-12-07T12:37:52;5.20;1.00
4183;DHT22;2105;52.300;9.182;2023-12-07T12:40:22;5.20;1.00
4183;DHT22;2105;52.300;9.182;2023-12-07T12:42:50;5.10;47.90
4183;DHT22;2105;52.300;9.182;2023-12-07T12:45:18;5.20;1.00
4183;DHT22;2105;52.300;9.182;2023-12-07T12:47:46;5.40;1.00
4183;DHT22;2105;52.300;9.182;2023-12-07T12:50:33;5.50;1.00
4183;DHT22;2105;52.300;9.182;2023-12-07T12:53:00;5.60;1.00
4183;DHT22;2105;52.300;9.182;2023-12-07T12:55:30;5.70;1.00
4183;DHT22;2105;52.300;9.182;2023-12-07T12:57:56;5.70;99.90
4183;DHT22;2105;52.300;9.182;2023-12-07T13:00:24;5.80;1.00
4183;DHT22;2105;52.300;9.182;2023-12-07T13:02:51;6.10;1.00
4183;DHT22;2105;52.300;9.182;2023-12-07T13:05:18;6.40;99.90
4183;DHT22;2105;52.300;9.182;2023-12-07T13:07:44;6.90;99.90
4183;DHT22;2105;52.300;9.182;2023-12-07T13:10:14;7.50;1.00
4183;DHT22;2105;52.300;9.182;2023-12-07T13:12:42;8.10;1.00
4183;DHT22;2105;52.300;9.182;2023-12-07T13:15:09;8.60;99.90
4183;DHT22;2105;52.300;9.182;2023-12-07T13:17:37;9.00;99.90
4183;DHT22;2105;52.300;9.182;2023-12-07T13:20:05;9.30;1.00
4183;DHT22;2105;52.300;9.182;2023-12-07T13:22:33;9.60;99.90
4183;DHT22;2105;52.300;9.182;2023-12-07T13:24:59;9.90;99.90
4183;DHT22;2105;52.300;9.182;2023-12-07T13:27:26;10.00;99.90
4183;DHT22;2105;52.300;9.182;2023-12-07T13:29:55;10.20;88.90
4183;DHT22;2105;52.300;9.182;2023-12-07T13:32:21;10.50;47.40
4183;DHT22;2105;52.300;9.182;2023-12-07T13:34:49;10.70;7.20
4183;DHT22;2105;52.300;9.182;2023-12-07T13:37:16;10.30;1.00
4183;DHT22;2105;52.300;9.182;2023-12-07T13:39:42;9.90;1.00
4183;DHT22;2105;52.300;9.182;2023-12-07T13:42:09;9.50;1.00
4183;DHT22;2105;52.300;9.182;2023-12-07T13:44:36;9.40;1.00
4183;DHT22;2105;52.300;9.182;2023-12-07T13:47:04;9.30;1.00
4183;DHT22;2105;52.300;9.182;2023-12-07T13:49:31;9.40;1.00
4183;DHT22;2105;52.300;9.182;2023-12-07T13:51:57;9.10;1.00
4183;DHT22;2105;52.300;9.182;2023-12-07T13:54:25;8.80;1.00
4183;DHT22;2105;52.300;9.182;2023-12-07T13:56:52;8.30;1.00
4183;DHT22;2105;52.300;9.182;2023-12-07T13:59:18;7.90;1.00
4183;DHT22;2105;52.300;9.182;2023-12-07T14:01:45;7.60;45.10
4183;DHT22;2105;52.300;9.182;2023-12-07T14:04:13;7.20;99.90
4183;DHT22;2105;52.300;9.182;2023-12-07T14:06:40;7.00;99.90
4183;DHT22;2105;52.300;9.182;2023-12-07T14:09:07;6.80;99.90
4183;DHT22;2105;52.300;9.182;2023-12-07T14:11:47;6.50;99.90
4183;DHT22;2105;52.300;9.182;2023-12-07T14:14:14;6.10;99.90
4183;DHT22;2105;52.300;9.182;2023-12-07T14:16:42;5.70;1.00
4183;DHT22;2105;52.300;9.182;2023-12-07T14:19:08;5.40;1.00
4183;DHT22;2105;52.300;9.182;2023-12-07T14:21:36;5.20;1.00
4183;DHT22;2105;52.300;9.182;2023-12-07T14:24:03;5.10;99.90
4183;DHT22;2105;52.300;9.182;2023-12-07T14:26:30;5.10;99.90
4183;DHT22;2105;52.300;9.182;2023-12-07T14:28:57;5.00;1.00
4183;DHT22;2105;52.300;9.182;2023-12-07T14:31:24;4.90;1.00
4183;DHT22;2105;52.300;9.182;2023-12-07T14:33:51;4.80;64.40
4183;DHT22;2105;52.300;9.182;2023-12-07T14:36:18;4.70;42.70
4183;DHT22;2105;52.300;9.182;2023-12-07T14:38:46;4.50;99.90
4183;DHT22;2105;52.300;9.182;2023-12-07T14:41:15;4.30;1.00
4183;DHT22;2105;52.300;9.182;2023-12-07T14:43:42;4.10;1.00
4183;DHT22;2105;52.300;9.182;2023-12-07T14:46:09;3.90;99.90
4183;DHT22;2105;52.300;9.182;2023-12-07T14:48:37;3.80;99.90
4183;DHT22;2105;52.300;9.182;2023-12-07T14:51:04;3.70;98.40
4183;DHT22;2105;52.300;9.182;2023-12-07T14:53:31;3.60;1.00
4183;DHT22;2105;52.300;9.182;2023-12-07T14:55:59;3.50;1.00
4183;DHT22;2105;52.300;9.182;2023-12-07T14:58:26;3.50;1.00
4183;DHT22;2105;52.300;9.182;2023-12-07T15:00:52;3.40;99.90
4183;DHT22;2105;52.300;9.182;2023-12-07T15:03:20;3.40;99.90
4183;DHT22;2105;52.300;9.182;2023-12-07T15:05:47;3.30;99.90
4183;DHT22;2105;52.300;9.182;2023-12-07T15:08:14;3.20;99.90
4183;DHT22;2105;52.300;9.182;2023-12-07T15:10:41;3.20;1.00
4183;DHT22;2105;52.300;9.182;2023-12-07T15:13:10;3.20;99.90
4183;DHT22;2105;52.300;9.182;2023-12-07T15:15:36;3.10;1.00
4183;DHT22;2105;52.300;9.182;2023-12-07T15:18:03;3.10;99.90
4183;DHT22;2105;52.300;9.182;2023-12-07T15:20:30;3.00;59.70
4183;DHT22;2105;52.300;9.182;2023-12-07T15:22:57;2.90;99.90
4183;DHT22;2105;52.300;9.182;2023-12-07T15:25:23;2.90;35.80
4183;DHT22;2105;52.300;9.182;2023-12-07T15:27:50;2.80;1.00
4183;DHT22;2105;52.300;9.182;2023-12-07T15:30:18;2.70;99.90
4183;DHT22;2105;52.300;9.182;2023-12-07T15:32:48;2.70;99.90
4183;DHT22;2105;52.300;9.182;2023-12-07T15:35:15;2.70;99.90
4183;DHT22;2105;52.300;9.182;2023-12-07T15:37:42;2.70;99.90
4183;DHT22;2105;52.300;9.182;2023-12-07T15:40:09;2.70;99.90
4183;DHT22;2105;52.300;9.182;2023-12-07T15:42:36;2.60;1.00
4183;DHT22;2105;52.300;9.182;2023-12-07T15:45:04;2.60;48.80
4183;DHT22;2105;52.300;9.182;2023-12-07T15:47:32;2.60;99.90
4183;DHT22;2105;52.300;9.182;2023-12-07T15:49:59;2.60;1.00
4183;DHT22;2105;52.300;9.182;2023-12-07T15:52:26;2.60;36.10
4183;DHT22;2105;52.300;9.182;2023-12-07T15:54:53;2.50;99.90
4183;DHT22;2105;52.300;9.182;2023-12-07T15:57:20;2.50;99.90
4183;DHT22;2105;52.300;9.182;2023-12-07T15:59:46;2.50;1.00
4183;DHT22;2105;52.300;9.182;2023-12-07T16:02:13;2.50;1.00
4183;DHT22;2105;52.300;9.182;2023-12-07T16:04:43;2.50;1.00
4183;DHT22;2105;52.300;9.182;2023-12-07T16:07:11;2.50;1.00
4183;DHT22;2105;52.300;9.182;2023-12-07T16:09:39;2.50;1.00
4183;DHT22;2105;52.300;9.182;2023-12-07T16:12:06;2.50;1.00
4183;DHT22;2105;52.300;9.182;2023-12-07T16:14:33;2.50;1.00
4183;DHT22;2105;52.300;9.182;2023-12-07T16:17:00;2.50;1.00
4183;DHT22;2105;52.300;9.182;2023-12-07T16:19:26;2.50;1.00
4183;DHT22;2105;52.300;9.182;2023-12-07T16:21:54;2.60;1.00
4183;DHT22;2105;52.300;9.182;2023-12-07T16:24:21;2.60;1.00
4183;DHT22;2105;52.300;9.182;2023-12-07T16:26:48;2.60;1.00